sensor_id;sensor_type;location;lat;lon;timestamp;P1;durP1;ratioP1;P2;durP2;ratioP2
20531;SDS011;10424;52.102;8.084;2023-02-05T00:01:55;9.60;;;5.33;;
20531;SDS011;10424;52.102;8.084;2023-02-05T00:04:24;10.57;;;5.17;;
20531;SDS011;10424;52.102;8.084;2023-02-05T00:06:51;10.33;;;5.07;;
20531;SDS011;10424;52.102;8.084;2023-02-05T00:09:18;9.87;;;5.40;;
20531;SDS011;10424;52.102;8.084;2023-02-05T00:11:45;9.63;;;4.90;;
20531;SDS011;10424;52.102;8.084;2023-02-05T00:14:13;7.90;;;4.73;;
20531;SDS011;10424;52.102;8.084;2023-02-05T00:16:40;8.73;;;5.10;;
20531;SDS011;10424;52.102;8.084;2023-02-05T00:19:07;7.57;;;4.70;;
20531;SDS011;10424;52.102;8.084;2023-02-05T00:21:36;7.97;;;4.90;;
20531;SDS011;10424;52.102;8.084;2023-02-05T00:24:03;9.47;;;5.33;;
20531;SDS011;10424;52.102;8.084;2023-02-05T00:26:31;10.33;;;5.43;;
20531;SDS011;10424;52.102;8.084;2023-02-05T00:28:58;10.17;;;5.60;;
20531;SDS011;10424;52.102;8.084;2023-02-05T00:31:25;10.70;;;5.70;;
20531;SDS011;10424;52.102;8.084;2023-02-05T00:33:52;9.13;;;5.53;;
20531;SDS011;10424;52.102;8.084;2023-02-05T00:36:20;8.37;;;5.27;;
20531;SDS011;10424;52.102;8.084;2023-02-05T00:38:49;9.67;;;5.60;;
20531;SDS011;10424;52.102;8.084;2023-02-05T00:41:17;8.30;;;5.40;;
20531;SDS011;10424;52.102;8.084;2023-02-05T00:43:44;8.03;;;5.17;;
20531;SDS011;10424;52.102;8.084;2023-02-05T00:46:12;11.50;;;5.50;;
20531;SDS011;10424;52.102;8.084;2023-02-05T00:48:40;8.70;;;5.10;;
20531;SDS011;10424;52.102;8.084;2023-02-05T00:51:08;8.73;;;4.97;;
20531;SDS011;10424;52.102;8.084;2023-02-05T00:53:35;8.97;;;5.20;;
20531;SDS011;10424;52.102;8.084;2023-02-05T00:56:04;9.27;;;5.40;;
20531;SDS011;10424;52.102;8.084;2023-02-05T00:58:32;8.93;;;5.27;;
20531;SDS011;10424;52.102;8.084;2023-02-05T01:01:00;9.10;;;5.50;;
20531;SDS011;10424;52.102;8.084;2023-02-05T01:03:27;9.20;;;5.23;;
20531;SDS011;10424;52.102;8.084;2023-02-05T01:05:54;11.07;;;5.63;;
20531;SDS011;10424;52.102;8.084;2023-02-05T01:08:21;9.97;;;5.23;;
20531;SDS011;10424;52.102;8.084;2023-02-05T01:10:49;9.50;;;5.30;;
20531;SDS011;10424;52.102;8.084;2023-02-05T01:13:18;10.53;;;5.80;;
20531;SDS011;10424;52.102;8.084;2023-02-05T01:15:45;10.50;;;5.47;;
20531;SDS011;10424;52.102;8.084;2023-02-05T01:18:13;9.20;;;5.53;;
20531;SDS011;10424;52.102;8.084;2023-02-05T01:20:40;9.63;;;5.50;;
20531;SDS011;10424;52.102;8.084;2023-02-05T01:23:08;9.43;;;5.97;;
20531;SDS011;10424;52.102;8.084;2023-02-05T01:25:35;10.30;;;5.60;;
20531;SDS011;10424;52.102;8.084;2023-02-05T01:28:03;11.07;;;6.40;;
20531;SDS011;10424;52.102;8.084;2023-02-05T01:30:32;10.60;;;6.10;;
20531;SDS011;10424;52.102;8.084;2023-02-05T01:32:59;9.57;;;5.50;;
20531;SDS011;10424;52.102;8.084;2023-02-05T01:35:26;13.10;;;5.50;;
20531;SDS011;10424;52.102;8.084;2023-02-05T01:37:54;9.23;;;5.77;;
20531;SDS011;10424;52.102;8.084;2023-02-05T01:40:21;10.37;;;5.83;;
20531;SDS011;10424;52.102;8.084;2023-02-05T01:42:48;9.33;;;5.40;;
20531;SDS011;10424;52.102;8.084;2023-02-05T01:48:03;8.80;;;5.57;;
20531;SDS011;10424;52.102;8.084;2023-02-05T01:50:33;11.10;;;5.30;;
20531;SDS011;10424;52.102;8.084;2023-02-05T01:53:02;11.57;;;5.80;;
20531;SDS011;10424;52.102;8.084;2023-02-05T01:55:31;11.10;;;5.63;;
20531;SDS011;10424;52.102;8.084;2023-02-05T01:57:58;8.27;;;5.90;;
20531;SDS011;10424;52.102;8.084;2023-02-05T02:00:26;11.00;;;5.40;;
20531;SDS011;10424;52.102;8.084;2023-02-05T02:02:54;9.17;;;5.53;;
20531;SDS011;10424;52.102;8.084;2023-02-05T02:05:22;8.80;;;5.63;;
20531;SDS011;10424;52.102;8.084;2023-02-05T02:07:50;9.10;;;5.67;;
20531;SDS011;10424;52.102;8.084;2023-02-05T02:10:17;8.80;;;5.43;;
20531;SDS011;10424;52.102;8.084;2023-02-05T02:12:45;10.43;;;5.90;;
20531;SDS011;10424;52.102;8.084;2023-02-05T02:15:14;10.67;;;5.80;;
20531;SDS011;10424;52.102;8.084;2023-02-05T02:17:43;8.97;;;5.73;;
20531;SDS011;10424;52.102;8.084;2023-02-05T02:20:12;10.17;;;5.43;;
20531;SDS011;10424;52.102;8.084;2023-02-05T02:22:49;9.87;;;5.60;;
20531;SDS011;10424;52.102;8.084;2023-02-05T02:25:28;9.83;;;5.73;;
20531;SDS011;10424;52.102;8.084;2023-02-05T02:28:02;9.53;;;5.67;;
20531;SDS011;10424;52.102;8.084;2023-02-05T02:30:31;10.33;;;5.93;;
20531;SDS011;10424;52.102;8.084;2023-02-05T02:33:03;8.60;;;5.40;;
20531;SDS011;10424;52.102;8.084;2023-02-05T02:35:34;13.90;;;6.47;;
20531;SDS011;10424;52.102;8.084;2023-02-05T02:38:05;16.80;;;7.70;;
20531;SDS011;10424;52.102;8.084;2023-02-05T02:40:35;15.10;;;6.43;;
20531;SDS011;10424;52.102;8.084;2023-02-05T02:43:05;13.90;;;6.57;;
20531;SDS011;10424;52.102;8.084;2023-02-05T02:45:34;12.63;;;6.73;;
20531;SDS011;10424;52.102;8.084;2023-02-05T02:48:01;11.77;;;6.20;;
20531;SDS011;10424;52.102;8.084;2023-02-05T02:50:34;10.63;;;6.20;;
20531;SDS011;10424;52.102;8.084;2023-02-05T02:53:03;10.30;;;6.27;;
20531;SDS011;10424;52.102;8.084;2023-02-05T02:55:35;13.37;;;6.30;;
20531;SDS011;10424;52.102;8.084;2023-02-05T02:58:04;11.80;;;6.43;;
20531;SDS011;10424;52.102;8.084;2023-02-05T03:00:34;13.27;;;6.43;;
20531;SDS011;10424;52.102;8.084;2023-02-05T03:03:04;12.13;;;6.47;;
20531;SDS011;10424;52.102;8.084;2023-02-05T03:05:32;10.10;;;6.40;;
20531;SDS011;10424;52.102;8.084;2023-02-05T03:08:01;11.73;;;6.47;;
20531;SDS011;10424;52.102;8.084;2023-02-05T03:10:32;11.60;;;6.30;;
20531;SDS011;10424;52.102;8.084;2023-02-05T03:13:01;10.83;;;6.30;;
20531;SDS011;10424;52.102;8.084;2023-02-05T03:15:28;11.03;;;6.73;;
20531;SDS011;10424;52.102;8.084;2023-02-05T03:17:57;10.47;;;6.43;;
20531;SDS011;10424;52.102;8.084;2023-02-05T03:22:53;11.83;;;6.23;;
20531;SDS011;10424;52.102;8.084;2023-02-05T03:25:21;10.57;;;6.03;;
20531;SDS011;10424;52.102;8.084;2023-02-05T03:27:49;11.87;;;6.50;;
20531;SDS011;10424;52.102;8.084;2023-02-05T03:30:18;12.40;;;6.67;;
20531;SDS011;10424;52.102;8.084;2023-02-05T03:32:49;10.40;;;6.33;;
20531;SDS011;10424;52.102;8.084;2023-02-05T03:35:27;13.00;;;6.80;;
20531;SDS011;10424;52.102;8.084;2023-02-05T03:38:02;12.20;;;6.50;;
20531;SDS011;10424;52.102;8.084;2023-02-05T03:40:36;11.73;;;6.50;;
20531;SDS011;10424;52.102;8.084;2023-02-05T03:43:05;12.07;;;6.80;;
20531;SDS011;10424;52.102;8.084;2023-02-05T03:45:43;11.60;;;6.70;;
20531;SDS011;10424;52.102;8.084;2023-02-05T03:51:08;13.03;;;6.70;;
20531;SDS011;10424;52.102;8.084;2023-02-05T03:53:42;10.27;;;6.60;;
20531;SDS011;10424;52.102;8.084;2023-02-05T03:56:12;12.87;;;6.93;;
20531;SDS011;10424;52.102;8.084;2023-02-05T03:58:43;13.10;;;6.83;;
20531;SDS011;10424;52.102;8.084;2023-02-05T04:01:12;16.10;;;6.73;;
20531;SDS011;10424;52.102;8.084;2023-02-05T04:03:39;11.83;;;7.03;;
20531;SDS011;10424;52.102;8.084;2023-02-05T04:06:08;12.30;;;6.83;;
20531;SDS011;10424;52.102;8.084;2023-02-05T04:08:35;13.47;;;6.57;;
20531;SDS011;10424;52.102;8.084;2023-02-05T04:11:03;13.07;;;7.00;;
20531;SDS011;10424;52.102;8.084;2023-02-05T04:13:31;12.50;;;6.80;;
20531;SDS011;10424;52.102;8.084;2023-02-05T04:15:58;12.77;;;7.00;;
20531;SDS011;10424;52.102;8.084;2023-02-05T04:18:25;11.77;;;7.07;;
20531;SDS011;10424;52.102;8.084;2023-02-05T04:20:53;13.53;;;7.17;;
20531;SDS011;10424;52.102;8.084;2023-02-05T04:23:21;14.20;;;6.90;;
20531;SDS011;10424;52.102;8.084;2023-02-05T04:25:51;11.97;;;7.07;;
20531;SDS011;10424;52.102;8.084;2023-02-05T04:28:19;13.27;;;7.43;;
20531;SDS011;10424;52.102;8.084;2023-02-05T04:30:46;12.27;;;6.87;;
20531;SDS011;10424;52.102;8.084;2023-02-05T04:33:13;14.00;;;7.37;;
20531;SDS011;10424;52.102;8.084;2023-02-05T04:35:41;11.20;;;7.07;;
20531;SDS011;10424;52.102;8.084;2023-02-05T04:38:08;12.37;;;7.17;;
20531;SDS011;10424;52.102;8.084;2023-02-05T04:40:37;13.43;;;7.10;;
20531;SDS011;10424;52.102;8.084;2023-02-05T04:43:04;18.03;;;7.40;;
20531;SDS011;10424;52.102;8.084;2023-02-05T04:45:31;14.10;;;7.60;;
20531;SDS011;10424;52.102;8.084;2023-02-05T04:47:59;12.57;;;7.03;;
20531;SDS011;10424;52.102;8.084;2023-02-05T04:50:26;11.53;;;6.90;;
20531;SDS011;10424;52.102;8.084;2023-02-05T04:52:53;17.13;;;7.37;;
20531;SDS011;10424;52.102;8.084;2023-02-05T04:55:21;12.80;;;7.13;;
20531;SDS011;10424;52.102;8.084;2023-02-05T04:57:49;15.17;;;7.47;;
20531;SDS011;10424;52.102;8.084;2023-02-05T05:00:17;15.30;;;7.20;;
20531;SDS011;10424;52.102;8.084;2023-02-05T05:02:44;13.40;;;7.60;;
20531;SDS011;10424;52.102;8.084;2023-02-05T05:05:12;15.10;;;7.57;;
20531;SDS011;10424;52.102;8.084;2023-02-05T05:07:39;14.47;;;7.50;;
20531;SDS011;10424;52.102;8.084;2023-02-05T05:10:06;14.00;;;7.57;;
20531;SDS011;10424;52.102;8.084;2023-02-05T05:12:34;14.90;;;7.50;;
20531;SDS011;10424;52.102;8.084;2023-02-05T05:15:03;17.90;;;7.90;;
20531;SDS011;10424;52.102;8.084;2023-02-05T05:17:31;14.47;;;7.70;;
20531;SDS011;10424;52.102;8.084;2023-02-05T05:19:59;15.73;;;8.00;;
20531;SDS011;10424;52.102;8.084;2023-02-05T05:22:26;14.37;;;7.87;;
20531;SDS011;10424;52.102;8.084;2023-02-05T05:24:53;14.60;;;8.20;;
20531;SDS011;10424;52.102;8.084;2023-02-05T05:27:20;12.87;;;7.37;;
20531;SDS011;10424;52.102;8.084;2023-02-05T05:29:48;15.87;;;7.60;;
20531;SDS011;10424;52.102;8.084;2023-02-05T05:32:17;18.50;;;8.10;;
20531;SDS011;10424;52.102;8.084;2023-02-05T05:34:44;15.17;;;8.10;;
20531;SDS011;10424;52.102;8.084;2023-02-05T05:37:12;15.77;;;8.40;;
20531;SDS011;10424;52.102;8.084;2023-02-05T05:39:39;15.67;;;8.37;;
20531;SDS011;10424;52.102;8.084;2023-02-05T05:42:23;13.73;;;8.30;;
20531;SDS011;10424;52.102;8.084;2023-02-05T05:45:09;19.57;;;8.10;;
20531;SDS011;10424;52.102;8.084;2023-02-05T05:47:37;17.43;;;8.30;;
20531;SDS011;10424;52.102;8.084;2023-02-05T05:50:05;17.83;;;8.90;;
20531;SDS011;10424;52.102;8.084;2023-02-05T05:52:32;16.83;;;8.93;;
20531;SDS011;10424;52.102;8.084;2023-02-05T05:55:00;19.47;;;9.77;;
20531;SDS011;10424;52.102;8.084;2023-02-05T05:57:27;19.17;;;9.40;;
20531;SDS011;10424;52.102;8.084;2023-02-05T05:59:54;17.73;;;9.87;;
20531;SDS011;10424;52.102;8.084;2023-02-05T06:02:21;24.40;;;9.33;;
20531;SDS011;10424;52.102;8.084;2023-02-05T06:04:50;21.47;;;10.20;;
20531;SDS011;10424;52.102;8.084;2023-02-05T06:07:17;19.23;;;9.83;;
20531;SDS011;10424;52.102;8.084;2023-02-05T06:09:45;16.93;;;8.20;;
20531;SDS011;10424;52.102;8.084;2023-02-05T06:12:12;18.70;;;9.50;;
20531;SDS011;10424;52.102;8.084;2023-02-05T06:14:39;20.93;;;9.73;;
20531;SDS011;10424;52.102;8.084;2023-02-05T06:17:06;19.07;;;9.60;;
20531;SDS011;10424;52.102;8.084;2023-02-05T06:19:34;19.10;;;9.13;;
20531;SDS011;10424;52.102;8.084;2023-02-05T06:22:02;18.77;;;8.83;;
20531;SDS011;10424;52.102;8.084;2023-02-05T06:24:30;21.10;;;10.63;;
20531;SDS011;10424;52.102;8.084;2023-02-05T06:26:57;22.80;;;10.77;;
20531;SDS011;10424;52.102;8.084;2023-02-05T06:29:24;21.33;;;10.57;;
20531;SDS011;10424;52.102;8.084;2023-02-05T06:31:51;21.27;;;11.13;;
20531;SDS011;10424;52.102;8.084;2023-02-05T06:34:19;23.07;;;10.87;;
20531;SDS011;10424;52.102;8.084;2023-02-05T06:36:46;23.77;;;10.90;;
20531;SDS011;10424;52.102;8.084;2023-02-05T06:39:15;19.93;;;10.47;;
20531;SDS011;10424;52.102;8.084;2023-02-05T06:41:42;21.23;;;10.50;;
20531;SDS011;10424;52.102;8.084;2023-02-05T06:44:09;22.53;;;11.40;;
20531;SDS011;10424;52.102;8.084;2023-02-05T06:46:37;19.33;;;10.20;;
20531;SDS011;10424;52.102;8.084;2023-02-05T06:49:04;20.73;;;10.07;;
20531;SDS011;10424;52.102;8.084;2023-02-05T06:51:31;22.13;;;10.63;;
20531;SDS011;10424;52.102;8.084;2023-02-05T06:53:58;23.70;;;10.77;;
20531;SDS011;10424;52.102;8.084;2023-02-05T06:56:27;24.10;;;10.27;;
20531;SDS011;10424;52.102;8.084;2023-02-05T06:58:54;18.93;;;10.77;;
20531;SDS011;10424;52.102;8.084;2023-02-05T07:01:21;23.07;;;10.20;;
20531;SDS011;10424;52.102;8.084;2023-02-05T07:03:49;20.87;;;10.63;;
20531;SDS011;10424;52.102;8.084;2023-02-05T07:06:20;18.20;;;9.03;;
20531;SDS011;10424;52.102;8.084;2023-02-05T07:08:47;21.17;;;10.63;;
20531;SDS011;10424;52.102;8.084;2023-02-05T07:11:15;21.00;;;10.60;;
20531;SDS011;10424;52.102;8.084;2023-02-05T07:13:44;22.13;;;10.70;;
20531;SDS011;10424;52.102;8.084;2023-02-05T07:16:11;25.30;;;12.27;;
20531;SDS011;10424;52.102;8.084;2023-02-05T07:18:38;23.63;;;11.87;;
20531;SDS011;10424;52.102;8.084;2023-02-05T07:21:06;20.17;;;11.63;;
20531;SDS011;10424;52.102;8.084;2023-02-05T07:23:34;22.87;;;12.20;;
20531;SDS011;10424;52.102;8.084;2023-02-05T07:26:05;25.07;;;12.17;;
20531;SDS011;10424;52.102;8.084;2023-02-05T07:28:32;25.03;;;11.27;;
20531;SDS011;10424;52.102;8.084;2023-02-05T07:31:03;23.23;;;11.30;;
20531;SDS011;10424;52.102;8.084;2023-02-05T07:33:30;22.60;;;11.73;;
20531;SDS011;10424;52.102;8.084;2023-02-05T07:36:00;24.87;;;12.00;;
20531;SDS011;10424;52.102;8.084;2023-02-05T07:38:28;29.57;;;12.97;;
20531;SDS011;10424;52.102;8.084;2023-02-05T07:40:55;22.70;;;11.63;;
20531;SDS011;10424;52.102;8.084;2023-02-05T07:43:22;28.83;;;12.27;;
20531;SDS011;10424;52.102;8.084;2023-02-05T07:45:54;25.03;;;11.90;;
20531;SDS011;10424;52.102;8.084;2023-02-05T07:48:23;22.13;;;11.53;;
20531;SDS011;10424;52.102;8.084;2023-02-05T07:50:50;23.87;;;11.97;;
20531;SDS011;10424;52.102;8.084;2023-02-05T07:53:17;27.37;;;12.50;;
20531;SDS011;10424;52.102;8.084;2023-02-05T07:55:45;26.13;;;12.20;;
20531;SDS011;10424;52.102;8.084;2023-02-05T07:58:12;26.03;;;12.37;;
20531;SDS011;10424;52.102;8.084;2023-02-05T08:00:40;23.23;;;10.97;;
20531;SDS011;10424;52.102;8.084;2023-02-05T08:03:08;28.07;;;12.53;;
20531;SDS011;10424;52.102;8.084;2023-02-05T08:05:37;23.23;;;11.43;;
20531;SDS011;10424;52.102;8.084;2023-02-05T08:08:04;22.70;;;11.60;;
20531;SDS011;10424;52.102;8.084;2023-02-05T08:10:32;26.07;;;11.60;;
20531;SDS011;10424;52.102;8.084;2023-02-05T08:12:59;24.13;;;11.60;;
20531;SDS011;10424;52.102;8.084;2023-02-05T08:15:27;25.37;;;11.77;;
20531;SDS011;10424;52.102;8.084;2023-02-05T08:17:54;55.20;;;21.40;;
20531;SDS011;10424;52.102;8.084;2023-02-05T08:20:22;26.97;;;12.70;;
20531;SDS011;10424;52.102;8.084;2023-02-05T08:22:50;26.60;;;12.57;;
20531;SDS011;10424;52.102;8.084;2023-02-05T08:25:18;42.90;;;17.80;;
20531;SDS011;10424;52.102;8.084;2023-02-05T08:27:46;29.10;;;13.17;;
20531;SDS011;10424;52.102;8.084;2023-02-05T08:30:14;42.43;;;18.43;;
20531;SDS011;10424;52.102;8.084;2023-02-05T08:32:42;29.57;;;13.53;;
20531;SDS011;10424;52.102;8.084;2023-02-05T08:35:13;27.37;;;13.37;;
20531;SDS011;10424;52.102;8.084;2023-02-05T08:37:40;29.63;;;13.73;;
20531;SDS011;10424;52.102;8.084;2023-02-05T08:40:10;25.80;;;13.03;;
20531;SDS011;10424;52.102;8.084;2023-02-05T08:42:37;26.67;;;12.63;;
20531;SDS011;10424;52.102;8.084;2023-02-05T08:45:05;30.73;;;13.57;;
20531;SDS011;10424;52.102;8.084;2023-02-05T08:47:33;26.23;;;12.60;;
20531;SDS011;10424;52.102;8.084;2023-02-05T08:50:00;26.97;;;13.30;;
20531;SDS011;10424;52.102;8.084;2023-02-05T08:52:27;25.20;;;13.37;;
20531;SDS011;10424;52.102;8.084;2023-02-05T08:54:55;25.77;;;12.70;;
20531;SDS011;10424;52.102;8.084;2023-02-05T08:57:26;26.27;;;12.13;;
20531;SDS011;10424;52.102;8.084;2023-02-05T08:59:54;25.63;;;12.90;;
20531;SDS011;10424;52.102;8.084;2023-02-05T09:02:21;23.37;;;11.93;;
20531;SDS011;10424;52.102;8.084;2023-02-05T09:04:49;25.97;;;12.63;;
20531;SDS011;10424;52.102;8.084;2023-02-05T09:07:16;27.97;;;12.13;;
20531;SDS011;10424;52.102;8.084;2023-02-05T09:09:44;26.23;;;13.00;;
20531;SDS011;10424;52.102;8.084;2023-02-05T09:12:11;25.00;;;11.93;;
20531;SDS011;10424;52.102;8.084;2023-02-05T09:14:40;24.77;;;12.80;;
20531;SDS011;10424;52.102;8.084;2023-02-05T09:17:08;26.83;;;13.87;;
20531;SDS011;10424;52.102;8.084;2023-02-05T09:19:38;25.20;;;13.20;;
20531;SDS011;10424;52.102;8.084;2023-02-05T09:22:06;26.77;;;13.67;;
20531;SDS011;10424;52.102;8.084;2023-02-05T09:24:35;30.37;;;14.77;;
20531;SDS011;10424;52.102;8.084;2023-02-05T09:27:03;27.83;;;14.40;;
20531;SDS011;10424;52.102;8.084;2023-02-05T09:29:30;26.23;;;14.00;;
20531;SDS011;10424;52.102;8.084;2023-02-05T09:31:59;25.57;;;13.97;;
20531;SDS011;10424;52.102;8.084;2023-02-05T09:34:26;24.07;;;14.43;;
20531;SDS011;10424;52.102;8.084;2023-02-05T09:36:53;28.33;;;14.70;;
20531;SDS011;10424;52.102;8.084;2023-02-05T09:39:21;25.57;;;13.27;;
20531;SDS011;10424;52.102;8.084;2023-02-05T09:41:50;23.10;;;12.70;;
20531;SDS011;10424;52.102;8.084;2023-02-05T09:44:24;25.00;;;13.40;;
20531;SDS011;10424;52.102;8.084;2023-02-05T09:46:55;24.97;;;13.17;;
20531;SDS011;10424;52.102;8.084;2023-02-05T09:49:27;27.93;;;13.80;;
20531;SDS011;10424;52.102;8.084;2023-02-05T09:51:57;26.33;;;13.57;;
20531;SDS011;10424;52.102;8.084;2023-02-05T09:54:26;22.77;;;13.07;;
20531;SDS011;10424;52.102;8.084;2023-02-05T09:56:55;24.97;;;13.20;;
20531;SDS011;10424;52.102;8.084;2023-02-05T09:59:24;23.53;;;12.80;;
20531;SDS011;10424;52.102;8.084;2023-02-05T10:01:52;22.80;;;12.20;;
20531;SDS011;10424;52.102;8.084;2023-02-05T10:04:21;21.93;;;12.23;;
20531;SDS011;10424;52.102;8.084;2023-02-05T10:09:49;21.70;;;12.93;;
20531;SDS011;10424;52.102;8.084;2023-02-05T10:12:24;24.10;;;13.00;;
20531;SDS011;10424;52.102;8.084;2023-02-05T10:14:59;25.57;;;13.87;;
20531;SDS011;10424;52.102;8.084;2023-02-05T10:17:36;27.93;;;14.37;;
20531;SDS011;10424;52.102;8.084;2023-02-05T10:20:14;22.87;;;13.30;;
20531;SDS011;10424;52.102;8.084;2023-02-05T10:22:47;23.50;;;14.10;;
20531;SDS011;10424;52.102;8.084;2023-02-05T10:25:27;26.33;;;13.57;;
20531;SDS011;10424;52.102;8.084;2023-02-05T10:28:00;23.30;;;13.60;;
20531;SDS011;10424;52.102;8.084;2023-02-05T10:30:29;25.37;;;14.20;;
20531;SDS011;10424;52.102;8.084;2023-02-05T10:32:57;25.13;;;14.23;;
20531;SDS011;10424;52.102;8.084;2023-02-05T10:35:26;23.73;;;13.83;;
20531;SDS011;10424;52.102;8.084;2023-02-05T10:37:59;24.57;;;13.23;;
20531;SDS011;10424;52.102;8.084;2023-02-05T10:40:30;22.07;;;12.87;;
20531;SDS011;10424;52.102;8.084;2023-02-05T10:42:59;21.40;;;12.80;;
20531;SDS011;10424;52.102;8.084;2023-02-05T10:45:28;23.13;;;13.37;;
20531;SDS011;10424;52.102;8.084;2023-02-05T10:48:00;22.10;;;12.77;;
20531;SDS011;10424;52.102;8.084;2023-02-05T10:50:30;23.67;;;13.00;;
20531;SDS011;10424;52.102;8.084;2023-02-05T10:52:58;23.93;;;13.50;;
20531;SDS011;10424;52.102;8.084;2023-02-05T10:55:25;22.57;;;12.70;;
20531;SDS011;10424;52.102;8.084;2023-02-05T10:57:54;25.03;;;13.57;;
20531;SDS011;10424;52.102;8.084;2023-02-05T11:00:22;22.77;;;13.77;;
20531;SDS011;10424;52.102;8.084;2023-02-05T11:02:50;25.00;;;14.20;;
20531;SDS011;10424;52.102;8.084;2023-02-05T11:05:20;23.50;;;14.17;;
20531;SDS011;10424;52.102;8.084;2023-02-05T11:07:49;29.10;;;16.13;;
20531;SDS011;10424;52.102;8.084;2023-02-05T11:10:17;28.17;;;16.30;;
20531;SDS011;10424;52.102;8.084;2023-02-05T11:12:45;27.43;;;16.03;;
20531;SDS011;10424;52.102;8.084;2023-02-05T11:15:22;34.63;;;18.33;;
20531;SDS011;10424;52.102;8.084;2023-02-05T11:17:50;27.33;;;15.52;;
20531;SDS011;10424;52.102;8.084;2023-02-05T11:20:21;24.67;;;14.20;;
20531;SDS011;10424;52.102;8.084;2023-02-05T11:22:50;22.45;;;13.73;;
20531;SDS011;10424;52.102;8.084;2023-02-05T11:25:30;23.25;;;12.52;;
20531;SDS011;10424;52.102;8.084;2023-02-05T11:27:58;20.00;;;11.98;;
20531;SDS011;10424;52.102;8.084;2023-02-05T11:30:28;21.33;;;11.55;;
20531;SDS011;10424;52.102;8.084;2023-02-05T11:32:56;18.65;;;10.70;;
20531;SDS011;10424;52.102;8.084;2023-02-05T11:35:24;18.75;;;10.50;;
20531;SDS011;10424;52.102;8.084;2023-02-05T11:37:58;20.38;;;11.40;;
20531;SDS011;10424;52.102;8.084;2023-02-05T11:40:27;16.80;;;10.65;;
20531;SDS011;10424;52.102;8.084;2023-02-05T11:43:00;18.15;;;10.85;;
20531;SDS011;10424;52.102;8.084;2023-02-05T11:45:30;21.35;;;11.82;;
20531;SDS011;10424;52.102;8.084;2023-02-05T11:47:59;21.20;;;10.57;;
20531;SDS011;10424;52.102;8.084;2023-02-05T11:50:27;21.63;;;12.02;;
20531;SDS011;10424;52.102;8.084;2023-02-05T11:53:04;21.60;;;11.55;;
20531;SDS011;10424;52.102;8.084;2023-02-05T11:55:33;19.65;;;11.82;;
20531;SDS011;10424;52.102;8.084;2023-02-05T11:58:02;24.45;;;12.88;;
20531;SDS011;10424;52.102;8.084;2023-02-05T12:00:31;23.80;;;12.95;;
20531;SDS011;10424;52.102;8.084;2023-02-05T12:03:03;25.33;;;14.18;;
20531;SDS011;10424;52.102;8.084;2023-02-05T12:05:31;24.48;;;13.57;;
20531;SDS011;10424;52.102;8.084;2023-02-05T12:08:03;26.10;;;13.93;;
20531;SDS011;10424;52.102;8.084;2023-02-05T12:10:34;22.55;;;13.25;;
20531;SDS011;10424;52.102;8.084;2023-02-05T12:13:09;23.02;;;12.82;;
20531;SDS011;10424;52.102;8.084;2023-02-05T12:15:40;24.33;;;13.35;;
20531;SDS011;10424;52.102;8.084;2023-02-05T12:18:14;28.08;;;15.88;;
20531;SDS011;10424;52.102;8.084;2023-02-05T12:20:46;28.23;;;14.10;;
20531;SDS011;10424;52.102;8.084;2023-02-05T12:23:21;25.45;;;14.05;;
20531;SDS011;10424;52.102;8.084;2023-02-05T12:26:00;26.90;;;14.27;;
20531;SDS011;10424;52.102;8.084;2023-02-05T12:28:32;26.88;;;14.43;;
20531;SDS011;10424;52.102;8.084;2023-02-05T12:31:07;28.67;;;15.32;;
20531;SDS011;10424;52.102;8.084;2023-02-05T12:33:53;23.15;;;12.65;;
20531;SDS011;10424;52.102;8.084;2023-02-05T12:39:08;22.90;;;10.65;;
20531;SDS011;10424;52.102;8.084;2023-02-05T12:41:40;18.70;;;11.15;;
20531;SDS011;10424;52.102;8.084;2023-02-05T12:44:13;20.17;;;11.55;;
20531;SDS011;10424;52.102;8.084;2023-02-05T12:46:58;20.42;;;11.80;;
20531;SDS011;10424;52.102;8.084;2023-02-05T12:49:33;26.25;;;13.82;;
20531;SDS011;10424;52.102;8.084;2023-02-05T12:52:11;21.40;;;11.80;;
20531;SDS011;10424;52.102;8.084;2023-02-05T12:54:44;21.75;;;12.85;;
20531;SDS011;10424;52.102;8.084;2023-02-05T12:57:14;24.33;;;13.35;;
20531;SDS011;10424;52.102;8.084;2023-02-05T12:59:44;21.35;;;12.10;;
20531;SDS011;10424;52.102;8.084;2023-02-05T13:02:16;25.27;;;13.48;;
20531;SDS011;10424;52.102;8.084;2023-02-05T13:04:44;21.65;;;12.50;;
20531;SDS011;10424;52.102;8.084;2023-02-05T13:07:16;20.20;;;12.02;;
20531;SDS011;10424;52.102;8.084;2023-02-05T13:09:48;16.88;;;9.40;;
20531;SDS011;10424;52.102;8.084;2023-02-05T13:12:18;16.42;;;9.85;;
20531;SDS011;10424;52.102;8.084;2023-02-05T13:14:52;16.38;;;9.98;;
20531;SDS011;10424;52.102;8.084;2023-02-05T13:17:22;14.70;;;8.93;;
20531;SDS011;10424;52.102;8.084;2023-02-05T13:19:51;15.82;;;9.50;;
20531;SDS011;10424;52.102;8.084;2023-02-05T13:22:20;14.57;;;8.77;;
20531;SDS011;10424;52.102;8.084;2023-02-05T13:25:12;15.00;;;8.65;;
20531;SDS011;10424;52.102;8.084;2023-02-05T13:27:57;16.40;;;9.38;;
20531;SDS011;10424;52.102;8.084;2023-02-05T13:30:45;15.60;;;8.68;;
20531;SDS011;10424;52.102;8.084;2023-02-05T13:33:15;11.82;;;6.82;;
20531;SDS011;10424;52.102;8.084;2023-02-05T13:35:45;12.52;;;7.40;;
20531;SDS011;10424;52.102;8.084;2023-02-05T13:38:29;17.37;;;10.10;;
20531;SDS011;10424;52.102;8.084;2023-02-05T13:41:08;17.55;;;9.25;;
20531;SDS011;10424;52.102;8.084;2023-02-05T13:43:45;17.48;;;10.30;;
20531;SDS011;10424;52.102;8.084;2023-02-05T13:46:23;18.40;;;9.63;;
20531;SDS011;10424;52.102;8.084;2023-02-05T13:49:11;20.77;;;10.68;;
20531;SDS011;10424;52.102;8.084;2023-02-05T13:51:43;20.23;;;10.40;;
20531;SDS011;10424;52.102;8.084;2023-02-05T13:54:19;17.98;;;9.63;;
20531;SDS011;10424;52.102;8.084;2023-02-05T13:56:47;23.13;;;11.83;;
20531;SDS011;10424;52.102;8.084;2023-02-05T13:59:20;20.85;;;8.88;;
20531;SDS011;10424;52.102;8.084;2023-02-05T14:01:49;20.88;;;10.13;;
20531;SDS011;10424;52.102;8.084;2023-02-05T14:04:20;18.20;;;8.82;;
20531;SDS011;10424;52.102;8.084;2023-02-05T14:06:54;15.68;;;7.70;;
20531;SDS011;10424;52.102;8.084;2023-02-05T14:09:23;18.20;;;8.73;;
20531;SDS011;10424;52.102;8.084;2023-02-05T14:11:54;18.40;;;8.20;;
20531;SDS011;10424;52.102;8.084;2023-02-05T14:14:26;13.25;;;7.47;;
20531;SDS011;10424;52.102;8.084;2023-02-05T14:16:54;15.70;;;7.57;;
20531;SDS011;10424;52.102;8.084;2023-02-05T14:19:24;14.65;;;7.70;;
20531;SDS011;10424;52.102;8.084;2023-02-05T14:22:02;14.55;;;7.03;;
20531;SDS011;10424;52.102;8.084;2023-02-05T14:32:56;15.53;;;7.30;;
20531;SDS011;10424;52.102;8.084;2023-02-05T14:35:28;16.40;;;7.03;;
20531;SDS011;10424;52.102;8.084;2023-02-05T14:37:57;16.02;;;7.70;;
20531;SDS011;10424;52.102;8.084;2023-02-05T14:40:27;14.30;;;6.78;;
20531;SDS011;10424;52.102;8.084;2023-02-05T14:42:57;16.45;;;7.20;;
20531;SDS011;10424;52.102;8.084;2023-02-05T14:45:27;20.88;;;7.47;;
20531;SDS011;10424;52.102;8.084;2023-02-05T14:47:54;19.92;;;7.57;;
20531;SDS011;10424;52.102;8.084;2023-02-05T14:50:23;13.95;;;6.53;;
20531;SDS011;10424;52.102;8.084;2023-02-05T14:52:53;15.90;;;7.22;;
20531;SDS011;10424;52.102;8.084;2023-02-05T14:55:24;15.02;;;7.07;;
20531;SDS011;10424;52.102;8.084;2023-02-05T14:57:53;13.32;;;6.70;;
20531;SDS011;10424;52.102;8.084;2023-02-05T15:00:23;16.70;;;7.03;;
20531;SDS011;10424;52.102;8.084;2023-02-05T15:02:58;18.65;;;7.47;;
20531;SDS011;10424;52.102;8.084;2023-02-05T15:05:30;17.63;;;7.63;;
20531;SDS011;10424;52.102;8.084;2023-02-05T15:08:06;18.80;;;9.45;;